Harry Richardson

Chefscout - Manchester United
14 Okt 2027
Donnerstag
Verarbeitung

Persönlichkeit

Anpassungsfähigkeit (16) Ehrgeiz (15) Kontroverse (7) Loyalität (4) Druck (13) Professionalität (16) Fairness (8) Temperament (17)

Profil

Trainerstil Demokratisch
Lizenz Nationale B
Entschlossenheit 10
Menschenführung 9
Motivation 12
Disziplin 11
Arbeitszufriedenheit
93%
Ermüdung
0%
Rolle Chefscout
Gehalt 120.2K p/W
Vertrag 14.03.2029

Leistung

Verhalten Gut
Trainingseffektivität
48%
Spielerentwicklung
60%
Verletzungsprävention
80%
Taktische Umsetzung
65%

Letzte Ereignisse

Nahm an einer Scouting-Besprechung teil jetzt
Empfahl ein Transferziel jetzt
Empfahl ein Transferziel jetzt
Empfahl ein Transferziel jetzt
Empfahl ein Transferziel 7T her
Empfahl ein Transferziel 7T her
Empfahl ein Transferziel 7T her
Nahm an einer Scouting-Besprechung teil 7T her

Aktuell beobachtet

126
Spieler Verein Status Fähigkeit Vertrauen Beobachtet Zuletzt beobachtet Letzte Stimme
Wilson Odobert Bristol City Verhandlung 147 / 155 40% 1 30.08.2027 -
Kota Tawaratsumida River Plate Aktiv 139 / 154 40% 1 30.08.2027 -
Archie Gray Derby County Aktiv 145 / 147 40% 1 30.08.2027 -
Kobbie Mainoo Leicester City Aktiv 152 / 163 40% 1 24.08.2027 -
Nicolò Savona Nottingham Forest Aktiv 144 / 144 40% 1 24.08.2027 -
Moisés Caicedo Chelsea Aktiv 171 / 177 40% 18 16.08.2027 -
Gabriel Martinelli Brighton Aktiv 164 / 168 40% 3 16.08.2027 -
Joško Gvardiol Napoli Verhandlung 169 / 175 40% 4 16.08.2027 -
Jesús Rodríguez Como Aktiv 147 / 158 40% 3 12.08.2027 -
Jayden Addai Como Aktiv 138 / 147 40% 2 12.08.2027 -
Francisco Conceição Juventus Aktiv 162 / 154 40% 11 11.08.2027 Beobachten
Antonio Vergara Napoli Aktiv 140 / 139 40% 1 11.08.2027 -
Alex Amorim Genoa Aktiv 133 / 144 40% 1 11.08.2027 -
Matías Soulé AS Roma Aktiv 160 / 159 40% 8 10.08.2027 -
Alex Scott Bournemouth Aktiv 154 / 163 40% 1 10.08.2027 -
Christ Inao Oulaï Fiorentina Aktiv 137 / 139 40% 1 10.08.2027 -
Lucas Bergvall Tottenham Aktiv 146 / 163 40% 1 10.08.2027 -
Alessandro Bianco Modena Aktiv 135 / 134 40% 1 10.08.2027 -
Kevin Fulham Aktiv 154 / 158 40% 4 02.08.2027 -
Ilyas Ansah Hull City Aktiv 136 / 133 40% 3 02.08.2027 -
Fer López Wolverhampton Verloren 138 / 135 40% 1 02.08.2027 -
Shea Charles Southampton Aktiv 139 / 133 40% 3 01.08.2027 -
Assane Diao Lazio Aktiv 148 / 151 40% 5 31.07.2027 -
Yehor Yarmoliuk Brentford Aktiv 155 / 158 40% 1 31.07.2027 -
Toby Collyer West Bromwich Albion Aktiv 133 / 141 40% 1 31.07.2027 -
Kwadwo Baah Watford Aktiv 132 / 131 40% 3 30.07.2027 -
Malick Fofana Sunderland Abgelehnt 150 / 145 40% 2 30.07.2027 Mehr Infos nötig
Tom Fellows Southampton Aktiv 137 / 124 40% 1 30.07.2027 -
Christos Mouzakitis Hull City Aktiv 134 / 146 40% 4 29.07.2027 -
Yankuba Minteh Brighton Abgelehnt 150 / 154 40% 1 29.07.2027 Mehr Infos nötig
Xavi Simons Tottenham Aktiv 159 / 161 40% 13 28.07.2027 -
Levi Colwill Chelsea Aktiv 160 / 164 40% 26 26.07.2027 -
Isaac Price West Bromwich Albion Aktiv 134 / 142 40% 1 26.07.2027 -
Malo Gusto Chelsea Aktiv 151 / 161 40% 1 26.07.2027 -
Christ Inao Oulaï Fiorentina Verloren 141 / 146 40% 1 26.07.2027 -
Andre Brooks Sheffield United Aktiv 129 / 127 40% 1 23.07.2027 -
Ben Gannon Doak Bournemouth Aktiv 143 / 151 40% 3 22.07.2027 -
Jofre Torrents Ajax Aktiv 125 / 132 40% 2 22.07.2027 -
Christ Inao Oulaï Fiorentina Verloren 140 / 150 40% 1 22.07.2027 -
Leo Castledine Middlesbrough Aktiv 130 / 135 40% 3 20.07.2027 -
Oscar Schwartau Norwich City Aktiv 125 / 124 40% 3 20.07.2027 -
Sascha Britschgi Padova Aktiv 120 / 120 40% 2 20.07.2027 -
Davide Bartesaghi AC Milan Aktiv 132 / 131 40% 3 19.07.2027 -
Matheus Gonçalves Al-Ahli Aktiv 135 / 122 40% 1 19.07.2027 -
Caleb Yirenkyi Coventry City Aktiv 141 / 136 40% 2 18.07.2027 -
Alphadjo Cissé Como Aktiv 125 / 130 40% 6 18.07.2027 -
Johan Manzambi Newcastle United Aktiv 147 / 149 40% 2 17.07.2027 -
Abdul Fatawu Leicester City Aktiv 144 / 132 40% 1 17.07.2027 -
Shea Lacey Wolverhampton Aktiv 125 / 133 40% 4 13.07.2027 -
Ousmane Diomande Nottingham Forest Aktiv 154 / 153 40% 15 12.07.2027 -
Josh King Chelsea Aktiv 145 / 154 40% 4 12.07.2027 -
Rodrigo Mora AS Roma Aktiv 142 / 147 40% 1 12.07.2027 -
Kirill Glebov CSKA Moscow Aktiv 131 / 125 40% 1 10.07.2027 -
Rayan Bournemouth Aktiv 134 / 152 40% 1 06.07.2027 -
Mfundo Vilakazi Kaizer Chiefs Aktiv 116 / 129 40% 1 06.07.2027 -
Kutlwano Letlhaku Ajax Cape Town Aktiv 123 / 113 40% 1 03.07.2027 -
Jorrel Hato Chelsea Abgelehnt 152 / 161 86% 2 02.07.2027 Ablehnen
Othmane Maamma Watford Aktiv 127 / 133 40% 1 30.06.2027 -
Jakub Kiwior Everton Aktiv 158 / 167 40% 4 27.06.2027 -
Wesley Fofana Chelsea Verloren 162 / 161 40% 19 22.06.2027 -
Curtis Jones Inter Aktiv 162 / 151 40% 15 22.06.2027 -
Nico González Newcastle United Aktiv 162 / 162 40% 33 21.06.2027 -
Manu Koné AS Roma Verloren 168 / 166 40% 10 21.06.2027 -
Morgan Rogers Chelsea Aktiv 164 / 167 40% 17 21.06.2027 -
Declan Rice Arsenal Aktiv 188 / 178 40% 6 21.06.2027 -
Riccardo Calafiori Hull City Aktiv 154 / 163 40% 2 21.06.2027 -
Boubacar Kamara Aston Villa Aktiv 164 / 155 40% 21 19.06.2027 -
Jurriën Timber Arsenal Aktiv 168 / 162 40% 12 18.06.2027 -
Khéphren Thuram Aston Villa Aktiv 161 / 152 40% 2 18.06.2027 -
William Saliba Arsenal Aktiv 174 / 172 40% 21 17.06.2027 -
Jan Paul van Hecke Tottenham Aktiv 155 / 164 40% 16 17.06.2027 -
Kiernan Dewsbury-Hall Everton Aktiv 157 / 143 40% 9 16.06.2027 -
Sandro Tonali Tottenham Aktiv 175 / 182 40% 27 13.06.2027 -
Pierre Kalulu Juventus Verloren 156 / 150 40% 6 13.06.2027 -
Alejandro Balde Barcelona Aktiv 160 / 164 40% 3 12.06.2027 -
Amadou Onana Aston Villa Aktiv 158 / 162 40% 19 11.06.2027 -
Sven Botman Newcastle United Verloren 162 / 152 40% 10 07.06.2027 -
Kostantis Tzolakis Hull City Verloren 136 / 139 67% 1 01.06.2027 -
Iliman N'Diaye Everton Aktiv 157 / 153 40% 7 31.05.2027 Beobachten
Kenan Yıldız Juventus Aktiv 162 / 173 40% 9 29.05.2027 -
Vinícius Júnior Arsenal Aktiv 179 / 175 40% 1 29.05.2027 -
Nicolas Jackson Aston Villa Aktiv 153 / 143 40% 11 28.05.2027 -
Mohammed Kudus Tottenham Aktiv 162 / 158 40% 8 27.05.2027 -
Kai Havertz Arsenal Aktiv 164 / 164 40% 10 24.05.2027 -
Tyler Adams Bournemouth Aktiv 156 / 143 40% 17 23.05.2027 -
Quinten Timber Crystal Palace Aktiv 152 / 145 40% 9 21.05.2027 -
Gabriel Arsenal Aktiv 176 / 182 40% 13 21.05.2027 -
Callum Hudson-Odoi Nottingham Forest Aktiv 151 / 154 40% 12 21.05.2027 -
Jacob Ramsey Newcastle United Aktiv 156 / 148 40% 14 21.05.2027 -
Alexis Saelemaekers AC Milan Aktiv 155 / 160 40% 7 19.05.2027 -
Xaver Schlager Nottingham Forest Aktiv 148 / 161 40% 12 18.05.2027 -
Óscar Mingueza Crystal Palace Aktiv 150 / 147 40% 5 18.05.2027 -
Hector Ramirez Newcastle United Aktiv 153 / 161 40% 30 10.05.2027 -
João Pedro Chelsea Aktiv 155 / 160 40% 8 07.05.2027 -
Konstantin Tyukavin Inter Aktiv 136 / 130 40% 1 03.05.2027 -
Ricardo Pepi Chelsea Aktiv 144 / 141 40% 1 03.05.2027 -
Bruno Guimarães Arsenal Aktiv 169 / 162 40% 15 24.04.2027 -
Jarrad Branthwaite Everton Aktiv 157 / 147 40% 12 24.04.2027 -
Adrien Truffert Bournemouth Aktiv 153 / 151 40% 5 24.04.2027 -
Benjamin White Arsenal Aktiv 160 / 159 40% 10 12.04.2027 -
James Maddison Tottenham Aktiv 162 / 161 40% 7 06.04.2027 -
Tino Livramento Newcastle United Aktiv 156 / 166 40% 3 05.04.2027 -
Jarrod Bowen West Ham United Aktiv 152 / 144 40% 5 28.03.2027 -
Leon Goretzka Aston Villa Aktiv 159 / 160 40% 7 07.03.2027 -
Reece James Chelsea Aktiv 168 / 166 40% 11 28.02.2027 -
Francisco Trincão Zenit Aktiv 156 / 158 40% 1 27.01.2027 -
Raúl Rangel Sporting CP Aktiv 132 / 132 66% 1 01.01.2027 Befürworten
Stanislav Agkatsev Sunderland Verhandlung 132 / 133 66% 1 01.01.2027 Befürworten
Marvin Keller Bayer Leverkusen Verhandlung 136 / 137 67% 1 01.01.2027 Befürworten
Dmytro Riznyk Cruz Azul Verhandlung 137 / 137 66% 1 01.01.2027 Befürworten
James Garner Everton Aktiv 152 / 159 40% 4 30.12.2026 -
Warren Zaïre-Emery Paris Saint-Germain Aktiv 157 / 161 40% 5 23.12.2026 -
Mikel Merino Arsenal Aktiv 154 / 159 40% 2 21.12.2026 -
Andrew Robertson Tottenham Aktiv 155 / 161 40% 6 15.12.2026 -
Ian Maatsen Aston Villa Aktiv 153 / 160 40% 3 11.12.2026 -
Murillo Nottingham Forest Aktiv 153 / 156 40% 7 06.12.2026 -
Federico Dimarco Inter Aktiv 161 / 161 40% 1 30.11.2026 -
Nicolò Rovella Lazio Aktiv 148 / 160 40% 2 17.11.2026 -
Conor Gallagher Tottenham Aktiv 150 / 148 40% 6 10.11.2026 -
Malick Thiaw West Ham United Aktiv 154 / 157 40% 2 12.10.2026 -
Matty Cash Aston Villa Aktiv 150 / 144 40% 3 09.10.2026 -
Mauro Arambarri River Plate Aktiv 156 / 136 40% 2 23.09.2026 -
Ezri Konsa Arsenal Aktiv 148 / 150 40% 2 18.09.2026 -
Fabián Paris Saint-Germain Aktiv 167 / 162 40% 1 15.09.2026 -
Stanislav Lobotka Galatasaray Aktiv 158 / 169 40% 1 10.09.2026 -
Rodrigo De Paul Inter Miami CF Aktiv 153 / 158 40% 1 24.08.2026 -